Antioch, South Carolina
Current Conditions -  °F | °C
As of 9:55 PM on Thursday 20 Nov 2014 (Local Time) from KCDN Reporting Station
Clear Clear  
Wind Chill: 46°   Ceiling: Unl
Heat Index: 48°   Visibility: 10mi
Dew Point: 32°   Wind: 5mph
Humidity: 54%   Direction: 230°SW
Pressure: 30.19"   Gusts: NA
Location:  34.2974°N, 80.6089°W
Report Text: KCDN 210255Z AUTO 23004KT 10SM CLR 09/00 A3019 RMK AO2 TSNO
Loading
Personal Weather Stations






























Interactive Weather Map New forecast layout! Learn more

10-Day Weather Forecast

Advertisements
Track Severe Weather on mobile